createdAt,value
2017-12-17T00:00:48.544Z,0.90
2017-12-17T00:03:19.405Z,0.80
2017-12-17T00:05:50.283Z,1.00
2017-12-17T00:08:21.152Z,0.90
2017-12-17T00:10:52.012Z,1.60
2017-12-17T00:13:22.903Z,2.00
2017-12-17T00:15:53.764Z,2.80
2017-12-17T00:18:24.641Z,2.30
2017-12-17T00:20:55.490Z,2.10
2017-12-17T00:23:26.396Z,2.33
2017-12-17T00:25:57.234Z,2.73
2017-12-17T00:28:28.109Z,2.10
2017-12-17T00:30:58.958Z,1.90
2017-12-17T00:33:30.684Z,2.35
2017-12-17T00:36:01.541Z,2.10
2017-12-17T00:38:32.400Z,2.00
2017-12-17T00:41:03.259Z,2.03
2017-12-17T00:43:34.155Z,2.70
2017-12-17T00:46:04.984Z,2.13
2017-12-17T00:48:35.824Z,1.73
2017-12-17T00:51:06.664Z,1.57
2017-12-17T00:53:37.514Z,1.57
2017-12-17T00:56:08.383Z,1.60
2017-12-17T00:58:39.243Z,1.73
2017-12-17T01:01:10.122Z,1.40
2017-12-17T01:03:40.963Z,1.80
2017-12-17T01:06:11.837Z,1.47
2017-12-17T01:08:42.705Z,1.27
2017-12-17T01:11:13.589Z,1.30
2017-12-17T01:13:44.450Z,1.83
2017-12-17T01:16:15.422Z,1.33
2017-12-17T01:18:46.230Z,1.60
2017-12-17T01:21:17.067Z,1.63
2017-12-17T01:23:47.910Z,1.30
2017-12-17T01:26:18.783Z,0.93
2017-12-17T01:28:49.611Z,1.27
2017-12-17T01:31:20.444Z,1.10
2017-12-17T01:33:51.263Z,1.20
2017-12-17T01:36:22.119Z,1.17
2017-12-17T01:38:53.731Z,1.30
2017-12-17T01:41:24.571Z,1.17
2017-12-17T01:43:55.452Z,0.83
2017-12-17T01:46:26.288Z,1.47
2017-12-17T01:48:57.140Z,1.30
2017-12-17T01:51:27.979Z,0.90
2017-12-17T01:53:58.836Z,1.00
2017-12-17T01:56:29.666Z,1.27
2017-12-17T01:59:00.523Z,1.20
2017-12-17T02:01:31.380Z,0.83
2017-12-17T02:04:02.224Z,1.20
2017-12-17T02:06:33.059Z,0.80
2017-12-17T02:09:04.029Z,0.83
2017-12-17T02:11:34.840Z,0.90
2017-12-17T02:14:05.676Z,1.10
2017-12-17T02:16:36.498Z,0.73
2017-12-17T02:19:07.376Z,0.80
2017-12-17T02:21:38.317Z,1.20
2017-12-17T02:24:09.160Z,0.97
2017-12-17T02:26:40.107Z,0.90
2017-12-17T02:29:10.958Z,1.07
2017-12-17T02:31:41.810Z,0.80
2017-12-17T02:34:12.709Z,0.83
2017-12-17T02:36:43.572Z,0.90
2017-12-17T02:39:14.424Z,0.67
2017-12-17T02:41:45.298Z,0.90
2017-12-17T02:44:16.146Z,0.60
2017-12-17T02:46:47.097Z,0.80
2017-12-17T02:49:17.974Z,0.60
2017-12-17T02:51:48.832Z,0.80
2017-12-17T02:54:19.682Z,0.70
2017-12-17T02:56:50.560Z,0.50
2017-12-17T02:59:21.388Z,0.90
2017-12-17T03:01:52.248Z,1.00
2017-12-17T03:04:23.101Z,0.70
2017-12-17T03:06:53.931Z,0.70
2017-12-17T03:09:24.768Z,0.80
2017-12-17T03:11:55.675Z,0.50
2017-12-17T03:14:26.532Z,0.60
2017-12-17T03:16:57.395Z,0.70
2017-12-17T03:19:28.231Z,0.80
2017-12-17T03:21:59.083Z,0.70
2017-12-17T03:24:29.934Z,0.70
2017-12-17T03:27:00.807Z,0.80
2017-12-17T03:29:31.636Z,0.70
2017-12-17T03:32:02.492Z,0.60
2017-12-17T03:34:33.351Z,0.80
2017-12-17T03:37:04.204Z,0.73
2017-12-17T03:39:35.033Z,0.90
2017-12-17T03:42:05.872Z,0.60
2017-12-17T03:44:36.710Z,0.70
2017-12-17T03:47:07.567Z,0.53
2017-12-17T03:49:38.467Z,0.80
2017-12-17T03:52:09.298Z,0.50
2017-12-17T03:54:40.151Z,0.77
2017-12-17T03:57:10.980Z,0.50
2017-12-17T03:59:41.834Z,0.60
2017-12-17T04:02:12.681Z,0.40
2017-12-17T04:04:43.551Z,0.70
2017-12-17T04:07:14.400Z,0.50
2017-12-17T04:09:45.264Z,0.60
2017-12-17T04:12:16.109Z,0.70
2017-12-17T04:14:46.956Z,0.70
2017-12-17T04:17:17.791Z,0.60
2017-12-17T04:19:48.654Z,0.70
2017-12-17T04:22:19.490Z,0.67
2017-12-17T04:24:50.347Z,0.40
2017-12-17T04:27:21.303Z,0.60
2017-12-17T04:29:52.141Z,0.70
2017-12-17T04:32:22.967Z,0.60
2017-12-17T04:34:53.799Z,0.40
2017-12-17T04:37:24.660Z,0.63
2017-12-17T04:39:55.626Z,0.67
2017-12-17T04:42:26.439Z,0.60
2017-12-17T04:44:57.263Z,0.80
2017-12-17T04:47:28.113Z,0.60
2017-12-17T04:49:58.951Z,0.50
2017-12-17T04:52:29.815Z,0.47
2017-12-17T04:55:00.672Z,0.50
2017-12-17T04:57:31.519Z,0.50
2017-12-17T05:00:02.409Z,0.40
2017-12-17T05:02:33.247Z,0.40
2017-12-17T05:05:04.090Z,0.50
2017-12-17T05:07:34.946Z,0.37
2017-12-17T05:10:06.204Z,0.40
2017-12-17T05:12:37.050Z,0.55
2017-12-17T05:15:07.896Z,0.73
2017-12-17T05:17:38.761Z,0.60
2017-12-17T05:20:09.615Z,0.60
2017-12-17T05:22:40.487Z,0.40
2017-12-17T05:25:11.327Z,0.60
2017-12-17T05:27:42.216Z,0.40
2017-12-17T05:30:13.047Z,0.50
2017-12-17T05:32:43.904Z,0.50
2017-12-17T05:35:14.751Z,0.43
2017-12-17T05:37:45.607Z,0.50
2017-12-17T05:40:16.442Z,0.40
2017-12-17T05:42:47.322Z,0.50
2017-12-17T05:45:18.160Z,0.73
2017-12-17T05:47:49.003Z,0.53
2017-12-17T05:50:19.880Z,0.53
2017-12-17T05:52:50.726Z,0.53
2017-12-17T05:55:21.634Z,0.57
2017-12-17T05:57:52.472Z,0.50
2017-12-17T06:00:23.331Z,0.50
2017-12-17T06:02:54.171Z,0.60
2017-12-17T06:05:25.031Z,0.60
2017-12-17T06:07:55.861Z,0.43
2017-12-17T06:10:26.712Z,0.50
2017-12-17T06:12:57.563Z,0.43
2017-12-17T06:15:28.534Z,0.60
2017-12-17T06:17:59.373Z,0.60
2017-12-17T06:20:30.316Z,0.47
2017-12-17T06:23:01.137Z,0.40
2017-12-17T06:25:31.966Z,0.50
2017-12-17T06:28:02.831Z,0.50
2017-12-17T06:30:33.687Z,0.53
2017-12-17T06:33:04.545Z,0.40
2017-12-17T06:35:35.394Z,0.33
2017-12-17T06:38:06.275Z,0.50
2017-12-17T06:40:37.101Z,0.50
2017-12-17T06:43:07.940Z,0.60
2017-12-17T06:45:38.788Z,0.40
2017-12-17T06:48:09.639Z,0.50
2017-12-17T06:50:40.482Z,0.50
2017-12-17T06:53:11.339Z,0.63
2017-12-17T06:55:42.194Z,0.70
2017-12-17T06:58:13.052Z,0.60
2017-12-17T07:00:43.935Z,0.40
2017-12-17T07:03:14.778Z,0.30
2017-12-17T07:05:45.635Z,0.40
2017-12-17T07:08:16.500Z,0.50
2017-12-17T07:10:47.347Z,0.50
2017-12-17T07:13:18.184Z,0.50
2017-12-17T07:15:49.079Z,0.53
2017-12-17T07:18:19.938Z,0.37
2017-12-17T07:20:50.786Z,0.40
2017-12-17T07:23:21.620Z,0.30
2017-12-17T07:25:52.504Z,0.60
2017-12-17T07:28:23.427Z,0.60
2017-12-17T07:30:54.271Z,0.40
2017-12-17T07:33:25.099Z,0.50
2017-12-17T07:35:55.959Z,0.50
2017-12-17T07:38:26.820Z,0.43
2017-12-17T07:40:57.671Z,0.50
2017-12-17T07:43:28.508Z,0.50
2017-12-17T07:45:59.390Z,0.60
2017-12-17T07:48:30.226Z,0.33
2017-12-17T07:51:01.095Z,0.40
2017-12-17T07:53:31.936Z,0.50
2017-12-17T07:56:02.783Z,0.40
2017-12-17T07:58:33.628Z,0.50
2017-12-17T08:01:04.502Z,0.50
2017-12-17T08:03:35.456Z,0.50
2017-12-17T08:06:06.303Z,0.47
2017-12-17T08:08:37.162Z,0.50
2017-12-17T08:11:08.033Z,0.47
2017-12-17T08:13:38.890Z,0.50
2017-12-17T08:16:09.748Z,0.77
2017-12-17T08:18:40.603Z,0.60
2017-12-17T08:21:11.450Z,0.50
2017-12-17T08:23:42.294Z,0.40
2017-12-17T08:26:13.147Z,0.47
2017-12-17T08:28:44.003Z,0.53
2017-12-17T08:31:14.869Z,0.57
2017-12-17T08:33:45.803Z,0.50
2017-12-17T08:36:16.719Z,0.50
2017-12-17T08:38:47.572Z,0.47
2017-12-17T08:41:18.465Z,0.67
2017-12-17T08:43:49.307Z,0.40
2017-12-17T08:46:20.155Z,0.63
2017-12-17T08:48:51.019Z,0.40
2017-12-17T08:51:21.851Z,0.47
2017-12-17T08:53:52.712Z,0.70
2017-12-17T08:56:23.552Z,0.43
2017-12-17T08:58:54.400Z,0.60
2017-12-17T09:01:25.260Z,0.50
2017-12-17T09:03:56.112Z,0.40
2017-12-17T09:06:26.965Z,0.50
2017-12-17T09:08:57.812Z,0.40
2017-12-17T09:11:28.705Z,0.57
2017-12-17T09:13:59.559Z,0.60
2017-12-17T09:16:30.416Z,0.40
2017-12-17T09:19:01.277Z,0.40
2017-12-17T09:21:32.139Z,0.70
2017-12-17T09:24:02.979Z,0.40
2017-12-17T09:26:33.866Z,0.47
2017-12-17T09:29:04.708Z,0.50
2017-12-17T09:31:35.571Z,0.70
2017-12-17T09:34:06.451Z,0.70
2017-12-17T09:36:37.333Z,0.50
2017-12-17T09:39:08.189Z,0.50
2017-12-17T09:41:39.061Z,0.47
2017-12-17T09:44:09.911Z,0.60
2017-12-17T09:46:40.792Z,0.50
2017-12-17T09:49:11.682Z,0.37
2017-12-17T09:51:42.540Z,0.57
2017-12-17T09:54:13.424Z,0.60
2017-12-17T09:56:44.264Z,0.70
2017-12-17T09:59:15.131Z,0.50
2017-12-17T10:01:45.962Z,0.50
2017-12-17T10:04:16.825Z,0.60
2017-12-17T10:06:47.713Z,0.60
2017-12-17T10:09:18.583Z,0.70
2017-12-17T10:11:49.465Z,0.70
2017-12-17T10:14:20.441Z,0.43
2017-12-17T10:16:51.293Z,0.50
2017-12-17T10:19:22.160Z,0.30
2017-12-17T10:21:53.020Z,0.40
2017-12-17T10:24:23.896Z,0.60
2017-12-17T10:26:54.760Z,0.70
2017-12-17T10:29:25.636Z,0.60
2017-12-17T10:31:56.493Z,0.40
2017-12-17T10:34:27.350Z,0.63
2017-12-17T10:36:58.217Z,0.57
2017-12-17T10:39:29.097Z,0.70
2017-12-17T10:41:59.973Z,0.40
2017-12-17T10:44:30.838Z,0.33
2017-12-17T10:47:01.815Z,0.60
2017-12-17T10:49:32.759Z,0.30
2017-12-17T10:52:03.720Z,0.40
2017-12-17T10:54:34.577Z,0.70
2017-12-17T10:57:05.456Z,0.60
2017-12-17T10:59:36.354Z,0.53
2017-12-17T11:02:07.268Z,1.00
2017-12-17T11:04:38.125Z,1.20
2017-12-17T11:07:09.036Z,0.97
2017-12-17T11:09:39.873Z,1.50
2017-12-17T11:12:10.766Z,1.10
2017-12-17T11:14:41.619Z,1.30
2017-12-17T11:17:12.483Z,1.30
2017-12-17T11:19:43.331Z,0.93
2017-12-17T11:22:14.186Z,1.13
2017-12-17T11:24:45.078Z,0.77
2017-12-17T11:27:15.948Z,1.10
2017-12-17T11:29:46.839Z,8.60
2017-12-17T11:32:17.680Z,16.50
2017-12-17T11:34:48.591Z,22.87
2017-12-17T11:37:19.449Z,21.13
2017-12-17T11:39:50.326Z,18.17
2017-12-17T11:42:21.182Z,16.87
2017-12-17T11:44:52.107Z,15.17
2017-12-17T11:47:22.959Z,10.50
2017-12-17T11:49:53.843Z,9.90
2017-12-17T11:52:24.709Z,8.93
2017-12-17T11:54:55.585Z,7.90
2017-12-17T11:57:26.592Z,6.70
2017-12-17T11:59:57.471Z,7.18
2017-12-17T12:02:28.800Z,7.07
2017-12-17T12:04:59.642Z,6.62
2017-12-17T12:07:30.487Z,6.00
2017-12-17T12:10:01.385Z,4.87
2017-12-17T12:12:32.279Z,4.57
2017-12-17T12:15:03.156Z,4.07
2017-12-17T12:17:34.077Z,4.80
2017-12-17T12:20:04.948Z,5.07
2017-12-17T12:22:35.812Z,4.57
2017-12-17T12:25:06.677Z,3.70
2017-12-17T12:27:37.541Z,2.80
2017-12-17T12:30:08.440Z,3.10
2017-12-17T12:32:39.308Z,2.93
2017-12-17T12:35:10.178Z,2.57
2017-12-17T12:37:41.071Z,3.10
2017-12-17T12:40:11.941Z,2.53
2017-12-17T12:42:42.801Z,2.23
2017-12-17T12:45:14.496Z,2.23
2017-12-17T12:47:45.345Z,1.98
2017-12-17T12:50:16.233Z,1.77
2017-12-17T12:52:47.087Z,1.90
2017-12-17T12:55:17.960Z,1.63
2017-12-17T12:57:48.803Z,1.53
2017-12-17T13:00:19.672Z,1.30
2017-12-17T13:02:50.537Z,1.40
2017-12-17T13:05:21.422Z,1.53
2017-12-17T13:07:52.266Z,0.90
2017-12-17T13:10:23.139Z,1.17
2017-12-17T13:12:54.051Z,1.67
2017-12-17T13:15:24.911Z,1.10
2017-12-17T13:17:55.773Z,0.80
2017-12-17T13:20:26.690Z,1.20
2017-12-17T13:22:57.545Z,1.23
2017-12-17T13:25:28.426Z,1.30
2017-12-17T13:27:59.291Z,0.90
2017-12-17T13:30:30.175Z,0.97
2017-12-17T13:33:01.056Z,0.77
2017-12-17T13:35:31.931Z,0.70
2017-12-17T13:38:02.812Z,1.00
2017-12-17T13:40:33.667Z,1.47
2017-12-17T13:43:04.543Z,1.07
2017-12-17T13:45:35.389Z,1.17
2017-12-17T13:48:06.241Z,1.20
2017-12-17T13:50:37.105Z,0.93
2017-12-17T13:53:07.991Z,1.00
2017-12-17T13:55:38.874Z,1.97
2017-12-17T13:58:09.745Z,1.53
2017-12-17T14:00:40.608Z,1.20
2017-12-17T14:03:11.500Z,1.60
2017-12-17T14:05:42.357Z,1.17
2017-12-17T14:08:13.217Z,2.30
2017-12-17T14:10:44.074Z,2.30
2017-12-17T14:13:15.078Z,2.20
2017-12-17T14:15:45.937Z,1.90
2017-12-17T14:18:16.837Z,2.07
2017-12-17T14:20:47.689Z,2.40
2017-12-17T14:23:18.629Z,2.67
2017-12-17T14:25:49.511Z,2.43
2017-12-17T14:28:20.359Z,2.20
2017-12-17T14:30:51.553Z,1.80
2017-12-17T14:33:22.411Z,2.00
2017-12-17T14:35:53.300Z,1.50
2017-12-17T14:38:24.186Z,2.40
2017-12-17T14:40:55.079Z,1.80
2017-12-17T14:43:25.990Z,2.03
2017-12-17T14:45:56.860Z,1.97
2017-12-17T14:48:27.726Z,1.77
2017-12-17T14:50:58.590Z,1.90
2017-12-17T14:53:29.457Z,2.03
2017-12-17T14:56:00.340Z,1.80
2017-12-17T14:58:31.282Z,2.33
2017-12-17T15:01:02.212Z,2.10
2017-12-17T15:03:33.079Z,1.90
2017-12-17T15:06:03.956Z,2.00
2017-12-17T15:08:34.870Z,1.97
2017-12-17T15:11:05.741Z,1.87
2017-12-17T15:13:36.608Z,1.90
2017-12-17T15:16:07.486Z,2.00
2017-12-17T15:18:38.361Z,2.20
2017-12-17T15:21:09.191Z,1.53
2017-12-17T15:23:40.030Z,1.63
2017-12-17T15:26:10.924Z,2.23
2017-12-17T15:28:41.796Z,2.43
2017-12-17T15:31:12.703Z,2.23
2017-12-17T15:33:43.548Z,2.30
2017-12-17T15:36:14.477Z,2.20
2017-12-17T15:38:45.312Z,2.10
2017-12-17T15:41:16.181Z,1.80
2017-12-17T15:43:47.037Z,2.03
2017-12-17T15:46:17.902Z,2.30
2017-12-17T15:48:48.775Z,2.63
2017-12-17T15:51:19.659Z,2.10
2017-12-17T15:53:50.558Z,1.70
2017-12-17T15:56:21.429Z,1.63
2017-12-17T15:58:52.298Z,1.90
2017-12-17T16:01:23.146Z,1.77
2017-12-17T16:03:54.040Z,2.10
2017-12-17T16:06:24.945Z,1.50
2017-12-17T16:08:55.910Z,1.47
2017-12-17T16:11:26.752Z,1.50
2017-12-17T16:13:57.640Z,1.40
2017-12-17T16:16:28.492Z,1.60
2017-12-17T16:18:59.372Z,1.33
2017-12-17T16:21:30.238Z,1.30
2017-12-17T16:24:01.096Z,1.33
2017-12-17T16:26:31.967Z,1.53
2017-12-17T16:29:02.843Z,1.53
2017-12-17T16:31:33.743Z,1.40
2017-12-17T16:34:04.620Z,1.23
2017-12-17T16:36:35.461Z,1.33
2017-12-17T16:39:06.339Z,0.90
2017-12-17T16:41:37.205Z,0.90
2017-12-17T16:44:08.073Z,1.17
2017-12-17T16:46:38.928Z,1.20
2017-12-17T16:49:09.832Z,1.10
2017-12-17T16:51:40.779Z,1.07
2017-12-17T16:54:11.638Z,1.27
2017-12-17T16:56:42.481Z,1.30
2017-12-17T16:59:13.352Z,1.20
2017-12-17T17:01:44.794Z,2.17
2017-12-17T17:04:15.665Z,2.03
2017-12-17T17:06:46.556Z,1.90
2017-12-17T17:09:17.393Z,2.57
2017-12-17T17:11:48.239Z,1.60
2017-12-17T17:14:19.090Z,1.67
2017-12-17T17:16:49.993Z,2.00
2017-12-17T17:19:20.839Z,2.47
2017-12-17T17:21:51.694Z,2.03
2017-12-17T17:24:22.561Z,2.30
2017-12-17T17:26:53.426Z,2.20
2017-12-17T17:29:24.292Z,1.90
2017-12-17T17:31:55.196Z,1.90
2017-12-17T17:34:26.087Z,2.10
2017-12-17T17:36:56.944Z,2.20
2017-12-17T17:39:27.826Z,1.83
2017-12-17T17:41:58.666Z,1.93
2017-12-17T17:44:29.708Z,2.50
2017-12-17T17:47:00.594Z,2.05
2017-12-17T17:49:31.536Z,2.20
2017-12-17T17:52:02.381Z,1.73
2017-12-17T17:54:33.275Z,1.90
2017-12-17T17:57:04.122Z,1.57
2017-12-17T17:59:35.013Z,1.90
2017-12-17T18:02:05.933Z,1.50
2017-12-17T18:04:36.784Z,1.50
2017-12-17T18:07:07.637Z,1.60
2017-12-17T18:09:38.512Z,1.40
2017-12-17T18:12:09.370Z,1.50
2017-12-17T18:14:40.250Z,1.10
2017-12-17T18:17:11.102Z,1.03
2017-12-17T18:19:41.978Z,1.50
2017-12-17T18:22:12.867Z,1.37
2017-12-17T18:24:43.717Z,1.33
2017-12-17T18:27:14.589Z,1.00
2017-12-17T18:29:45.459Z,0.90
2017-12-17T18:32:16.343Z,0.90
2017-12-17T18:34:47.221Z,0.97
2017-12-17T18:37:18.108Z,1.20
2017-12-17T18:39:48.984Z,0.97
2017-12-17T18:42:19.915Z,1.17
2017-12-17T18:44:50.766Z,0.80
2017-12-17T18:47:21.626Z,1.00
2017-12-17T18:49:52.509Z,1.10
2017-12-17T18:52:23.349Z,0.80
2017-12-17T18:54:54.207Z,0.87
2017-12-17T18:57:25.081Z,1.00
2017-12-17T18:59:55.931Z,1.17
2017-12-17T19:02:26.900Z,1.07
2017-12-17T19:04:58.311Z,1.10
2017-12-17T19:07:29.207Z,1.30
2017-12-17T19:10:00.068Z,1.20
2017-12-17T19:12:30.952Z,1.47
2017-12-17T19:15:01.806Z,1.27
2017-12-17T19:17:32.681Z,1.40
2017-12-17T19:20:03.561Z,1.50
2017-12-17T19:22:34.447Z,1.50
2017-12-17T19:25:05.362Z,1.60
2017-12-17T19:27:36.233Z,1.23
2017-12-17T19:30:07.082Z,1.70
2017-12-17T19:32:38.056Z,1.47
2017-12-17T19:35:08.914Z,1.60
2017-12-17T19:37:39.804Z,14.23
2017-12-17T19:40:10.685Z,16.20
2017-12-17T19:42:41.606Z,20.70
2017-12-17T19:45:12.476Z,22.73
2017-12-17T19:47:43.450Z,20.77
2017-12-17T19:50:14.338Z,20.67
2017-12-17T19:52:45.227Z,16.20
2017-12-17T19:55:16.076Z,45.30
2017-12-17T19:57:46.964Z,35.40
2017-12-17T20:00:18.041Z,26.80
2017-12-17T20:02:48.942Z,22.87
2017-12-17T20:05:19.803Z,21.53
2017-12-17T20:07:50.701Z,19.57
2017-12-17T20:10:21.761Z,18.10
2017-12-17T20:12:52.709Z,18.48
2017-12-17T20:15:23.584Z,15.40
2017-12-17T20:17:54.516Z,13.20
2017-12-17T20:20:25.426Z,12.60
2017-12-17T20:22:56.318Z,12.10
2017-12-17T20:25:27.257Z,10.47
2017-12-17T20:27:58.314Z,10.37
2017-12-17T20:30:29.259Z,10.00
2017-12-17T20:33:00.144Z,9.27
2017-12-17T20:35:31.067Z,9.40
2017-12-17T20:38:01.922Z,7.63
2017-12-17T20:40:32.813Z,6.17
2017-12-17T20:45:40.860Z,5.53
2017-12-17T20:48:11.705Z,5.00
2017-12-17T20:50:42.581Z,5.50
2017-12-17T20:53:13.483Z,4.47
2017-12-17T20:55:44.390Z,4.30
2017-12-17T21:00:51.985Z,3.75
2017-12-17T21:03:22.888Z,3.53
2017-12-17T21:05:53.797Z,4.50
2017-12-17T21:08:24.639Z,3.00
2017-12-17T21:10:55.550Z,3.43
2017-12-17T21:13:26.440Z,6.87
2017-12-17T21:15:57.350Z,6.50
2017-12-17T21:18:28.205Z,6.57
2017-12-17T21:20:59.088Z,6.00
2017-12-17T21:23:29.966Z,5.20
2017-12-17T21:26:00.870Z,5.47
2017-12-17T21:28:31.770Z,4.57
2017-12-17T21:31:02.647Z,4.97
2017-12-17T21:33:33.558Z,4.30
2017-12-17T21:36:04.412Z,3.30
2017-12-17T21:38:35.334Z,4.10
2017-12-17T21:41:06.224Z,3.83
2017-12-17T21:43:37.136Z,3.87
2017-12-17T21:46:08.003Z,3.70
2017-12-17T21:48:38.865Z,3.50
2017-12-17T21:51:09.861Z,3.03
2017-12-17T21:53:40.724Z,3.25
2017-12-17T21:56:11.604Z,3.30
2017-12-17T21:58:42.460Z,3.80
2017-12-17T22:01:13.340Z,3.60
2017-12-17T22:03:44.196Z,2.93
2017-12-17T22:06:15.106Z,2.30
2017-12-17T22:08:45.955Z,3.03
2017-12-17T22:11:16.816Z,2.90
2017-12-17T22:13:47.660Z,2.30
2017-12-17T22:16:18.552Z,2.90
2017-12-17T22:18:49.426Z,2.80
2017-12-17T22:21:20.328Z,2.90
2017-12-17T22:23:52.599Z,2.80
2017-12-17T22:26:23.555Z,2.50
2017-12-17T22:28:54.405Z,2.73
2017-12-17T22:31:25.412Z,2.93
2017-12-17T22:33:56.247Z,3.30
2017-12-17T22:36:27.137Z,2.83
2017-12-17T22:38:58.002Z,2.60
2017-12-17T22:41:28.895Z,2.90
2017-12-17T22:43:59.771Z,2.63
2017-12-17T22:46:30.624Z,2.53
2017-12-17T22:49:01.566Z,2.70
2017-12-17T22:51:32.427Z,2.20
2017-12-17T22:54:03.329Z,2.07
2017-12-17T22:56:34.181Z,2.50
2017-12-17T22:59:05.071Z,2.17
2017-12-17T23:01:35.934Z,2.70
2017-12-17T23:04:06.811Z,2.13
2017-12-17T23:06:37.674Z,2.53
2017-12-17T23:09:08.540Z,2.40
2017-12-17T23:11:39.525Z,3.33
2017-12-17T23:14:10.376Z,2.73
2017-12-17T23:16:41.224Z,2.47
2017-12-17T23:19:12.135Z,2.93
2017-12-17T23:21:42.956Z,1.97
2017-12-17T23:24:13.837Z,2.87
2017-12-17T23:26:44.722Z,2.80
2017-12-17T23:29:15.581Z,2.00
2017-12-17T23:31:46.477Z,2.30
2017-12-17T23:34:17.381Z,4.97
2017-12-17T23:36:48.268Z,4.30
2017-12-17T23:39:19.128Z,3.93
2017-12-17T23:41:50.020Z,7.30
2017-12-17T23:44:20.902Z,9.60
2017-12-17T23:46:51.754Z,15.53
2017-12-17T23:49:22.646Z,20.10
2017-12-17T23:51:53.520Z,20.33
2017-12-17T23:54:24.474Z,21.30
2017-12-17T23:56:55.341Z,20.47
2017-12-17T23:59:26.347Z,19.77
